createdAt,value
2022-09-23T00:02:18.090Z,13.90
2022-09-23T00:04:46.908Z,13.84
2022-09-23T00:07:15.095Z,13.80
2022-09-23T00:09:43.382Z,13.77
2022-09-23T00:12:11.736Z,13.75
2022-09-23T00:14:40.898Z,13.76
2022-09-23T00:17:09.200Z,13.75
2022-09-23T00:19:41.341Z,13.75
2022-09-23T00:22:09.760Z,13.72
2022-09-23T00:24:37.949Z,13.71
2022-09-23T00:27:06.628Z,13.65
2022-09-23T00:29:35.032Z,13.62
2022-09-23T00:32:04.000Z,13.59
2022-09-23T00:34:32.899Z,13.61
2022-09-23T00:37:02.511Z,13.59
2022-09-23T00:39:30.741Z,13.55
2022-09-23T00:41:59.076Z,13.53
2022-09-23T00:44:45.969Z,13.48
2022-09-23T00:47:19.360Z,13.47
2022-09-23T00:49:51.085Z,13.44
2022-09-23T00:52:24.528Z,13.40
2022-09-23T00:54:56.457Z,13.35
2022-09-23T00:57:25.825Z,13.33
2022-09-23T00:59:54.261Z,13.33
2022-09-23T01:02:22.710Z,13.33
2022-09-23T01:04:52.089Z,13.29
2022-09-23T01:07:21.956Z,13.26
2022-09-23T01:09:51.078Z,13.21
2022-09-23T01:12:59.700Z,13.18
2022-09-23T01:15:38.861Z,13.13
2022-09-23T01:18:14.888Z,13.12
2022-09-23T01:20:59.397Z,13.09
2022-09-23T01:23:55.460Z,13.05
2022-09-23T01:26:43.865Z,13.03
2022-09-23T01:29:35.417Z,12.99
2022-09-23T01:32:14.318Z,13.03
2022-09-23T01:34:51.596Z,13.03
2022-09-23T01:37:28.765Z,13.05
2022-09-23T01:40:05.197Z,13.04
2022-09-23T01:42:40.776Z,13.03
2022-09-23T01:45:16.259Z,13.00
2022-09-23T01:47:52.470Z,12.99
2022-09-23T01:50:41.865Z,12.98
2022-09-23T01:53:16.721Z,12.91
2022-09-23T01:55:50.142Z,12.87
2022-09-23T01:58:24.486Z,12.63
2022-09-23T02:00:59.517Z,12.91
2022-09-23T02:03:32.495Z,12.73
2022-09-23T02:06:05.512Z,12.88
2022-09-23T02:08:36.839Z,12.89
2022-09-23T02:11:08.808Z,12.91
2022-09-23T02:13:42.298Z,12.57
2022-09-23T02:16:17.493Z,12.70
2022-09-23T02:18:53.007Z,12.89
2022-09-23T02:21:25.201Z,12.91
2022-09-23T02:23:59.837Z,12.76
2022-09-23T02:26:34.946Z,12.89
2022-09-23T02:29:10.708Z,12.85
2022-09-23T02:31:43.723Z,12.86
2022-09-23T02:34:22.063Z,12.89
2022-09-23T02:37:01.205Z,12.92
2022-09-23T02:39:38.235Z,12.93
2022-09-23T02:42:10.769Z,12.92
2022-09-23T02:44:39.172Z,12.92
2022-09-23T02:47:08.028Z,12.91
2022-09-23T02:49:37.776Z,12.88
2022-09-23T02:52:07.843Z,12.87
2022-09-23T02:54:36.354Z,12.92
2022-09-23T02:57:07.569Z,12.95
2022-09-23T02:59:38.129Z,12.96
2022-09-23T03:02:26.723Z,12.99
2022-09-23T03:05:06.604Z,12.99
2022-09-23T03:07:45.183Z,12.98
2022-09-23T03:10:20.345Z,12.91
2022-09-23T03:12:58.688Z,12.94
2022-09-23T03:15:36.705Z,13.03
2022-09-23T03:18:14.608Z,13.00
2022-09-23T03:20:51.141Z,12.76
2022-09-23T03:23:25.304Z,12.94
2022-09-23T03:25:56.753Z,12.92
2022-09-23T03:28:27.905Z,12.92
2022-09-23T03:30:57.680Z,12.92
2022-09-23T03:33:29.118Z,12.94
2022-09-23T03:36:22.001Z,12.97
2022-09-23T03:38:53.281Z,12.97
2022-09-23T03:41:29.005Z,12.86
2022-09-23T03:43:59.038Z,13.00
2022-09-23T03:46:30.279Z,12.99
2022-09-23T03:49:05.530Z,12.95
2022-09-23T03:51:35.255Z,12.97
2022-09-23T03:54:03.666Z,13.00
2022-09-23T03:56:31.977Z,13.00
2022-09-23T03:59:00.169Z,13.02
2022-09-23T04:01:29.974Z,13.01
2022-09-23T04:04:00.175Z,13.02
2022-09-23T04:06:28.445Z,12.96
2022-09-23T04:08:58.464Z,12.91
2022-09-23T04:11:26.707Z,12.89
2022-09-23T04:13:56.173Z,12.93
2022-09-23T04:16:24.711Z,12.89
2022-09-23T04:18:53.055Z,12.87
2022-09-23T04:21:21.354Z,12.90
2022-09-23T04:23:49.863Z,12.93
2022-09-23T04:26:20.292Z,12.96
2022-09-23T04:28:48.540Z,12.99
2022-09-23T04:31:16.927Z,13.01
2022-09-23T04:33:45.207Z,13.04
2022-09-23T04:36:13.471Z,13.06
2022-09-23T04:38:44.243Z,13.12
2022-09-23T04:41:12.746Z,13.19
2022-09-23T04:43:42.660Z,13.23
2022-09-23T04:46:13.042Z,13.24
2022-09-23T04:48:42.657Z,13.29
2022-09-23T04:51:12.843Z,13.32
2022-09-23T04:53:43.963Z,13.31
2022-09-23T04:56:15.015Z,13.34
2022-09-23T04:58:45.653Z,13.36
2022-09-23T05:01:16.314Z,13.24
2022-09-23T05:03:45.777Z,13.48
2022-09-23T05:06:16.058Z,13.48
2022-09-23T05:08:49.527Z,13.46
2022-09-23T05:11:18.874Z,13.49
2022-09-23T05:13:49.225Z,13.49
2022-09-23T05:16:17.954Z,13.45
2022-09-23T05:18:47.329Z,13.43
2022-09-23T05:21:17.196Z,13.44
2022-09-23T05:23:50.036Z,13.45
2022-09-23T05:26:18.319Z,13.38
2022-09-23T05:28:46.487Z,13.37
2022-09-23T05:31:20.287Z,13.40
2022-09-23T05:33:51.926Z,13.37
2022-09-23T05:36:21.374Z,13.35
2022-09-23T05:38:50.939Z,13.32
2022-09-23T05:41:23.113Z,13.34
2022-09-23T05:43:52.004Z,13.36
2022-09-23T05:46:24.521Z,13.35
2022-09-23T05:48:53.012Z,13.32
2022-09-23T05:51:22.609Z,13.31
2022-09-23T05:53:54.123Z,13.29
2022-09-23T05:56:24.269Z,13.29
2022-09-23T05:58:55.771Z,13.24
2022-09-23T06:01:28.398Z,13.27
2022-09-23T06:03:58.376Z,13.29
2022-09-23T06:06:30.653Z,13.31
2022-09-23T06:09:00.312Z,13.33
2022-09-23T06:11:31.416Z,13.35
2022-09-23T06:14:02.321Z,13.36
2022-09-23T06:16:33.800Z,13.41
2022-09-23T06:19:06.332Z,13.48
2022-09-23T06:21:36.646Z,13.56
2022-09-23T06:24:06.417Z,13.66
2022-09-23T06:26:35.512Z,13.73
2022-09-23T06:29:09.605Z,13.82
2022-09-23T06:31:41.246Z,13.88
2022-09-23T06:34:13.249Z,13.89
2022-09-23T06:36:44.907Z,14.03
2022-09-23T06:39:14.142Z,13.99
2022-09-23T06:41:42.464Z,14.14
2022-09-23T06:44:14.263Z,14.23
2022-09-23T06:46:44.221Z,14.34
2022-09-23T06:49:13.468Z,14.34
2022-09-23T06:51:42.380Z,14.52
2022-09-23T06:54:11.301Z,14.64
2022-09-23T06:56:40.291Z,14.80
2022-09-23T06:59:10.833Z,14.99
2022-09-23T07:01:39.321Z,15.12
2022-09-23T07:04:10.295Z,15.34
2022-09-23T07:06:38.608Z,15.53
2022-09-23T07:09:08.460Z,15.73
2022-09-23T07:11:37.597Z,15.92
2022-09-23T07:14:06.144Z,16.12
2022-09-23T07:16:34.462Z,16.33
2022-09-23T07:19:02.726Z,16.52
2022-09-23T07:21:32.853Z,16.66
2022-09-23T07:24:01.058Z,16.83
2022-09-23T07:26:29.646Z,16.97
2022-09-23T07:29:04.925Z,17.09
2022-09-23T07:31:39.494Z,17.18
2022-09-23T07:34:10.048Z,17.33
2022-09-23T07:36:41.391Z,17.46
2022-09-23T07:39:12.223Z,17.59
2022-09-23T07:41:41.801Z,17.69
2022-09-23T07:44:12.004Z,17.80
2022-09-23T07:46:40.469Z,17.90
2022-09-23T07:49:09.288Z,18.01
2022-09-23T07:51:41.075Z,18.10
2022-09-23T07:54:13.312Z,18.06
2022-09-23T07:56:42.509Z,18.27
2022-09-23T07:59:15.608Z,18.38
2022-09-23T08:01:45.429Z,18.44
2022-09-23T08:04:17.178Z,18.37
2022-09-23T08:06:48.735Z,18.73
2022-09-23T08:09:18.604Z,18.88
2022-09-23T08:11:46.840Z,19.00
2022-09-23T08:14:18.027Z,19.08
2022-09-23T08:16:47.740Z,19.16
2022-09-23T08:19:16.515Z,19.29
2022-09-23T08:21:47.853Z,19.42
2022-09-23T08:24:18.172Z,19.50
2022-09-23T08:26:47.517Z,19.62
2022-09-23T08:29:16.950Z,19.74
2022-09-23T08:31:45.452Z,19.86
2022-09-23T08:34:13.688Z,20.06
2022-09-23T08:36:41.954Z,20.32
2022-09-23T08:39:14.920Z,20.66
2022-09-23T08:41:52.915Z,20.94
2022-09-23T08:44:29.241Z,21.16
2022-09-23T08:47:07.559Z,21.17
2022-09-23T08:49:40.909Z,21.14
2022-09-23T08:52:16.848Z,21.08
2022-09-23T08:54:46.587Z,21.07
2022-09-23T08:57:28.423Z,21.05
2022-09-23T08:59:57.165Z,21.02
2022-09-23T09:02:25.415Z,21.06
2022-09-23T09:04:58.526Z,21.12
2022-09-23T09:07:38.428Z,21.13
2022-09-23T09:10:16.847Z,21.07
2022-09-23T09:12:48.362Z,20.96
2022-09-23T09:15:20.141Z,20.90
2022-09-23T09:18:01.334Z,20.94
2022-09-23T09:20:39.060Z,21.09
2022-09-23T09:23:16.775Z,21.18
2022-09-23T09:25:50.591Z,21.23
2022-09-23T09:28:23.259Z,21.30
2022-09-23T09:30:56.071Z,21.31
2022-09-23T09:33:31.024Z,21.35
2022-09-23T09:36:30.840Z,21.43
2022-09-23T09:38:59.850Z,21.50
2022-09-23T09:41:31.653Z,21.61
2022-09-23T09:44:03.562Z,21.66
2022-09-23T09:46:47.174Z,21.77
2022-09-23T09:49:23.949Z,21.82
2022-09-23T09:52:13.500Z,21.89
2022-09-23T09:54:41.880Z,21.96
2022-09-23T09:57:19.763Z,22.07
2022-09-23T09:59:48.076Z,22.05
2022-09-23T10:02:27.706Z,22.10
2022-09-23T10:05:00.317Z,22.13
2022-09-23T10:07:30.825Z,22.02
2022-09-23T10:10:21.844Z,22.22
2022-09-23T10:12:51.034Z,22.34
2022-09-23T10:15:31.421Z,22.47
2022-09-23T10:18:01.317Z,22.53
2022-09-23T10:20:38.256Z,22.68
2022-09-23T10:23:15.547Z,22.82
2022-09-23T10:25:44.157Z,22.27
2022-09-23T10:28:58.510Z,22.89
2022-09-23T10:31:32.172Z,22.88
2022-09-23T10:34:01.985Z,22.25
2022-09-23T10:36:31.809Z,22.83
2022-09-23T10:39:17.597Z,22.74
2022-09-23T10:42:14.600Z,22.80
2022-09-23T10:45:17.453Z,22.80
2022-09-23T10:47:58.984Z,22.61
2022-09-23T10:50:37.361Z,22.80
2022-09-23T10:53:13.090Z,22.79
2022-09-23T10:55:57.535Z,22.83
2022-09-23T10:58:50.629Z,22.81
2022-09-23T11:01:32.357Z,22.72
2022-09-23T11:04:46.491Z,22.77
2022-09-23T11:07:24.203Z,22.69
2022-09-23T11:10:35.410Z,23.03
2022-09-23T11:13:15.441Z,23.11
2022-09-23T11:15:58.080Z,23.11
2022-09-23T11:18:49.857Z,23.06
2022-09-23T11:21:46.712Z,23.17
2022-09-23T11:24:40.972Z,23.38
2022-09-23T11:27:17.416Z,23.58
2022-09-23T11:30:02.840Z,23.61
2022-09-23T11:32:53.695Z,23.54
2022-09-23T11:35:25.755Z,23.52
2022-09-23T11:37:59.999Z,23.58
2022-09-23T11:40:33.715Z,23.53
2022-09-23T11:43:08.428Z,23.57
2022-09-23T11:45:43.765Z,23.65
2022-09-23T11:48:17.449Z,23.67
2022-09-23T11:50:49.358Z,23.60
2022-09-23T11:53:24.768Z,23.56
2022-09-23T11:56:01.031Z,23.51
2022-09-23T11:58:32.832Z,23.50
2022-09-23T12:01:07.231Z,23.41
2022-09-23T12:03:48.350Z,23.35
2022-09-23T12:06:21.194Z,23.26
2022-09-23T12:08:57.664Z,23.15
2022-09-23T12:11:34.794Z,23.14
2022-09-23T12:14:15.710Z,23.18
2022-09-23T12:17:16.418Z,23.29
2022-09-23T12:20:01.411Z,23.42
2022-09-23T12:22:48.454Z,23.48
2022-09-23T12:25:46.533Z,23.57
2022-09-23T12:28:20.849Z,23.63
2022-09-23T12:30:51.162Z,23.69
2022-09-23T12:33:24.967Z,23.66
2022-09-23T12:35:55.480Z,23.62
2022-09-23T12:38:26.774Z,23.59
2022-09-23T12:40:57.738Z,23.70
2022-09-23T12:43:31.357Z,23.84
2022-09-23T12:46:20.023Z,23.96
2022-09-23T12:48:59.480Z,23.98
2022-09-23T12:51:29.168Z,24.08
2022-09-23T12:54:25.235Z,24.12
2022-09-23T12:57:06.630Z,24.09
2022-09-23T12:59:57.328Z,24.01
2022-09-23T13:02:36.003Z,23.94
2022-09-23T13:05:32.779Z,23.82
2022-09-23T13:08:06.372Z,23.59
2022-09-23T13:10:42.605Z,23.69
2022-09-23T13:13:21.506Z,23.71
2022-09-23T13:15:50.169Z,23.81
2022-09-23T13:18:26.362Z,23.90
2022-09-23T13:20:57.086Z,23.89
2022-09-23T13:23:27.119Z,23.88
2022-09-23T13:25:57.553Z,23.74
2022-09-23T13:28:34.539Z,23.77
2022-09-23T13:31:07.084Z,23.82
2022-09-23T13:33:47.335Z,23.78
2022-09-23T13:36:17.117Z,23.69
2022-09-23T13:38:46.930Z,23.64
2022-09-23T13:41:19.076Z,23.60
2022-09-23T13:43:51.311Z,23.05
2022-09-23T13:46:22.508Z,23.55
2022-09-23T13:48:55.376Z,23.48
2022-09-23T13:51:27.537Z,23.07
2022-09-23T13:53:56.903Z,23.36
2022-09-23T13:56:28.244Z,23.28
2022-09-23T13:59:20.741Z,23.31
2022-09-23T14:01:50.100Z,23.33
2022-09-23T14:04:25.494Z,23.35
2022-09-23T14:06:54.551Z,23.34
2022-09-23T14:09:30.306Z,23.08
2022-09-23T14:12:01.242Z,23.32
2022-09-23T14:14:31.855Z,23.30
2022-09-23T14:17:00.609Z,23.34
2022-09-23T14:19:28.817Z,23.34
2022-09-23T14:21:57.573Z,23.37
2022-09-23T14:24:32.961Z,23.38
2022-09-23T14:27:05.441Z,22.64
2022-09-23T14:29:38.719Z,23.29
2022-09-23T14:32:13.118Z,23.21
2022-09-23T14:34:46.813Z,23.16
2022-09-23T14:37:43.375Z,23.27
2022-09-23T14:40:16.433Z,23.17
2022-09-23T14:42:47.724Z,23.13
2022-09-23T14:45:21.910Z,23.11
2022-09-23T14:47:52.510Z,23.04
2022-09-23T14:50:39.717Z,22.98
2022-09-23T14:53:32.346Z,22.91
2022-09-23T14:56:12.710Z,22.82
2022-09-23T14:58:51.977Z,22.82
2022-09-23T15:01:35.849Z,22.76
2022-09-23T15:04:32.483Z,22.80
2022-09-23T15:07:05.498Z,22.78
2022-09-23T15:09:37.462Z,22.72
2022-09-23T15:12:09.621Z,22.69
2022-09-23T15:14:42.041Z,22.40
2022-09-23T15:17:32.651Z,22.64
2022-09-23T15:20:03.365Z,22.58
2022-09-23T15:22:31.652Z,22.53
2022-09-23T15:25:15.981Z,22.46
2022-09-23T15:27:57.738Z,22.45
2022-09-23T15:30:26.384Z,22.40
2022-09-23T15:32:56.041Z,22.37
2022-09-23T15:35:26.888Z,22.35
2022-09-23T15:37:58.982Z,22.34
2022-09-23T15:40:30.495Z,22.32
2022-09-23T15:43:00.770Z,22.31
2022-09-23T15:45:35.169Z,22.28
2022-09-23T15:48:09.019Z,22.26
2022-09-23T15:50:38.251Z,22.13
2022-09-23T15:53:07.171Z,22.16
2022-09-23T15:55:36.656Z,22.13
2022-09-23T15:58:04.884Z,22.05
2022-09-23T16:00:34.854Z,22.04
2022-09-23T16:03:06.748Z,21.97
2022-09-23T16:05:37.969Z,21.90
2022-09-23T16:08:09.227Z,21.87
2022-09-23T16:10:38.430Z,21.84
2022-09-23T16:13:09.125Z,21.67
2022-09-23T16:15:39.185Z,21.74
2022-09-23T16:18:09.420Z,21.72
2022-09-23T16:20:39.646Z,21.54
2022-09-23T16:23:10.033Z,21.42
2022-09-23T16:25:38.880Z,21.66
2022-09-23T16:28:07.205Z,21.63
2022-09-23T16:30:35.845Z,21.53
2022-09-23T16:33:04.081Z,21.59
2022-09-23T16:35:34.787Z,21.56
2022-09-23T16:38:03.100Z,21.52
2022-09-23T16:40:32.095Z,21.48
2022-09-23T16:43:02.289Z,21.40
2022-09-23T16:45:31.375Z,21.35
2022-09-23T16:48:00.683Z,21.29
2022-09-23T16:50:29.686Z,21.25
2022-09-23T16:52:59.365Z,21.22
2022-09-23T16:55:27.630Z,21.18
2022-09-23T16:57:56.578Z,21.19
2022-09-23T17:00:42.451Z,21.20
2022-09-23T17:03:31.146Z,21.15
2022-09-23T17:06:02.367Z,21.09
2022-09-23T17:08:34.743Z,21.09
2022-09-23T17:11:03.190Z,21.09
2022-09-23T17:13:32.533Z,21.04
2022-09-23T17:16:00.863Z,20.96
2022-09-23T17:18:29.799Z,20.93
2022-09-23T17:21:00.071Z,20.90
2022-09-23T17:23:29.081Z,20.88
2022-09-23T17:25:59.073Z,20.89
2022-09-23T17:28:27.402Z,20.86
2022-09-23T17:30:58.907Z,20.83
2022-09-23T17:33:28.366Z,20.79
2022-09-23T17:35:57.258Z,20.77
2022-09-23T17:38:29.184Z,20.73
2022-09-23T17:41:02.184Z,20.69
2022-09-23T17:43:31.601Z,20.63
2022-09-23T17:46:05.338Z,20.65
2022-09-23T17:48:35.024Z,20.65
2022-09-23T17:51:05.144Z,20.62
2022-09-23T17:53:35.670Z,20.57
2022-09-23T17:56:08.503Z,20.50
2022-09-23T17:58:38.260Z,20.37
2022-09-23T18:01:09.708Z,20.40
2022-09-23T18:03:38.136Z,20.40
2022-09-23T18:06:11.753Z,20.33
2022-09-23T18:08:41.391Z,20.29
2022-09-23T18:11:15.805Z,20.25
2022-09-23T18:13:44.614Z,20.20
2022-09-23T18:16:12.883Z,20.22
2022-09-23T18:18:41.260Z,20.22
2022-09-23T18:21:10.544Z,20.21
2022-09-23T18:23:38.914Z,20.15
2022-09-23T18:26:16.644Z,20.08
2022-09-23T18:28:45.593Z,19.99
2022-09-23T18:31:13.842Z,19.95
2022-09-23T18:33:43.468Z,19.97
2022-09-23T18:36:12.665Z,19.98
2022-09-23T18:38:41.005Z,19.97
2022-09-23T18:41:09.416Z,19.92
2022-09-23T18:43:42.235Z,19.85
2022-09-23T18:46:14.263Z,19.79
2022-09-23T18:49:00.558Z,19.76
2022-09-23T18:51:30.763Z,19.70
2022-09-23T18:54:00.482Z,19.64
2022-09-23T18:56:33.635Z,19.90
2022-09-23T18:59:03.574Z,19.78
2022-09-23T19:01:31.924Z,19.66
2022-09-23T19:04:02.478Z,19.58
2022-09-23T19:06:33.089Z,19.54
2022-09-23T19:09:02.314Z,19.53
2022-09-23T19:11:31.213Z,19.56
2022-09-23T19:14:02.050Z,19.43
2022-09-23T19:16:32.296Z,19.59
2022-09-23T19:19:01.181Z,19.55
2022-09-23T19:21:30.124Z,19.50
2022-09-23T19:24:03.441Z,19.49
2022-09-23T19:26:34.308Z,19.45
2022-09-23T19:29:04.464Z,19.44
2022-09-23T19:31:36.145Z,19.39
2022-09-23T19:34:10.233Z,19.33
2022-09-23T19:36:40.657Z,19.12
2022-09-23T19:39:13.390Z,18.84
2022-09-23T19:41:41.855Z,19.21
2022-09-23T19:44:12.085Z,19.19
2022-09-23T19:46:45.352Z,19.15
2022-09-23T19:49:14.174Z,19.13
2022-09-23T19:51:44.261Z,19.11
2022-09-23T19:54:13.197Z,19.07
2022-09-23T19:56:41.502Z,19.04
2022-09-23T19:59:09.988Z,18.98
2022-09-23T20:01:38.962Z,18.96
2022-09-23T20:04:08.946Z,18.98
2022-09-23T20:06:38.391Z,18.94
2022-09-23T20:09:06.936Z,18.89
2022-09-23T20:11:35.389Z,18.80
2022-09-23T20:14:06.445Z,18.73
2022-09-23T20:16:38.178Z,18.67
2022-09-23T20:19:08.145Z,18.68
2022-09-23T20:21:36.664Z,18.69
2022-09-23T20:24:07.095Z,18.08
2022-09-23T20:26:53.301Z,18.58
2022-09-23T20:29:21.536Z,18.22
2022-09-23T20:31:50.049Z,18.40
2022-09-23T20:34:21.266Z,18.43
2022-09-23T20:36:49.710Z,18.37
2022-09-23T20:39:17.914Z,18.33
2022-09-23T20:41:48.189Z,18.28
2022-09-23T20:44:17.500Z,18.23
2022-09-23T20:46:48.909Z,18.20
2022-09-23T20:49:17.906Z,18.19
2022-09-23T20:51:48.954Z,18.19
2022-09-23T20:54:19.288Z,18.17
2022-09-23T20:56:47.778Z,18.04
2022-09-23T20:59:17.854Z,18.16
2022-09-23T21:01:47.804Z,18.21
2022-09-23T21:04:16.583Z,18.19
2022-09-23T21:06:44.885Z,18.16
2022-09-23T21:09:14.563Z,18.16
2022-09-23T21:11:42.842Z,18.15
2022-09-23T21:14:11.100Z,18.16
2022-09-23T21:16:40.232Z,18.16
2022-09-23T21:19:08.742Z,18.15
2022-09-23T21:21:37.632Z,17.84
2022-09-23T21:24:36.098Z,17.46
2022-09-23T21:26:57.682Z,18.08
2022-09-23T21:29:25.899Z,18.09
2022-09-23T21:31:54.146Z,17.89
2022-09-23T21:34:23.534Z,18.11
2022-09-23T21:36:51.873Z,18.06
2022-09-23T21:39:20.364Z,18.02
2022-09-23T21:41:48.616Z,18.02
2022-09-23T21:44:18.368Z,18.04
2022-09-23T21:46:46.756Z,18.07
2022-09-23T21:49:15.576Z,18.07
2022-09-23T21:51:43.921Z,18.08
2022-09-23T21:54:15.759Z,18.09
2022-09-23T21:56:45.419Z,18.01
2022-09-23T21:59:13.689Z,18.04
2022-09-23T22:01:45.061Z,18.02
2022-09-23T22:04:17.202Z,17.94
2022-09-23T22:06:46.858Z,17.90
2022-09-23T22:09:17.197Z,17.87
2022-09-23T22:12:03.019Z,17.87
2022-09-23T22:14:31.399Z,17.84
2022-09-23T22:17:03.788Z,17.85
2022-09-23T22:19:35.321Z,17.73
2022-09-23T22:22:08.209Z,17.55
2022-09-23T22:24:36.538Z,16.68
2022-09-23T22:27:04.958Z,17.32
2022-09-23T22:29:50.838Z,17.24
2022-09-23T22:32:38.267Z,16.98
2022-09-23T22:35:07.565Z,17.13
2022-09-23T22:37:37.313Z,17.12
2022-09-23T22:40:07.722Z,17.09
2022-09-23T22:42:36.565Z,17.07
2022-09-23T22:45:06.394Z,17.05
2022-09-23T22:47:37.730Z,16.99
2022-09-23T22:50:06.479Z,16.96
2022-09-23T22:52:34.964Z,16.85
2022-09-23T22:55:03.783Z,16.84
2022-09-23T22:57:32.407Z,16.78
2022-09-23T23:00:00.889Z,16.70
2022-09-23T23:02:29.105Z,16.67
2022-09-23T23:05:00.535Z,16.65
2022-09-23T23:07:28.808Z,16.60
2022-09-23T23:09:57.053Z,16.60
2022-09-23T23:12:25.347Z,16.61
2022-09-23T23:14:53.564Z,16.52
2022-09-23T23:17:22.022Z,16.55
2022-09-23T23:19:50.960Z,16.56
2022-09-23T23:22:20.627Z,16.59
2022-09-23T23:24:48.898Z,16.53
2022-09-23T23:27:17.201Z,16.46
2022-09-23T23:29:46.391Z,16.47
2022-09-23T23:32:15.734Z,16.46
2022-09-23T23:34:43.946Z,16.42
2022-09-23T23:37:12.238Z,16.33
2022-09-23T23:39:41.981Z,16.31
2022-09-23T23:42:10.245Z,16.26
2022-09-23T23:44:38.594Z,16.22
2022-09-23T23:47:06.936Z,16.16
2022-09-23T23:49:35.213Z,16.14
2022-09-23T23:52:03.805Z,16.17
2022-09-23T23:54:33.021Z,16.22
2022-09-23T23:57:02.684Z,16.23
2022-09-23T23:59:31.088Z,16.19
